Decatur, IL (62521)

8:37 AM CDT on October 31, 2014 (GMT -0500)
Sandhill Dr. | Change Station
CLOSE
Current Station
Personal Weather Station
Location: Decatur, IL
Elevation: 676 ft
Nearby Weather Stations
Active Advisory: Freeze Warning

Elev 676 ft 39.82 °N, 88.92 °W | Updated 10 seconds ago

Overcast
Overcast
38.1 °F
Feels Like 29 °F
N
17.3
Wind Variable Wind from NNW
Gusts 19.0 mph

Today
High -- | Low -- °F
--% Chance of Precip.
Yesterday
High -- | Low -- °F
Precip. -- in
7:23 AM 5:54 PM
First Quarter, 55% visible
Pressure 30.16 in
Visibility 10.0 miles
Clouds Mostly Cloudy 3000 ft
Overcast 3400 ft
Windchill 29 °F
Dew Point 32 °F
Humidity 80%
Rainfall 0.00 in
Snow Depth Not available.
UV 0 out of 12
Pollen .90 out of 12
Air Quality Not available.
Flu Activity Not available.
METAR KDEC 311254Z 33025G31KT 10SM BKN030 OVC034 05/M01 A3015 RMK AO2 PK WND 33031/1253 SLP212 T00501011

More Conditions Fewer Conditions

Pressure 30.16 in
Visibility 10.0 miles
Clouds Mostly Cloudy 3000 ft
Overcast 3400 ft
Windchill 29 °F
Dew Point 32 °F
Humidity 80%
Rainfall 0.00 in
Snow Depth Not available.
UV 0 out of 12
Pollen .90 out of 12
Air Quality Not available.
Flu Activity Not available.
METAR KDEC 311254Z 33025G31KT 10SM BKN030 OVC034 05/M01 A3015 RMK AO2 PK WND 33031/1253 SLP212 T00501011

More Conditions Fewer Conditions

10-Day Weather Forecast

Almanac

Astronomy

Oct. 31, 2014 Rise Set
Actual Time
Civil Twilight
Nautical Twilight
Astronomical Twilight
Moon
Length of Visible Light
Length of Day
Tomorrow will be .
, % of the Moon is Illuminated

Today's Extremes

State Highs State Lows

Community

WunderPhotos

Upload Photos

1,766,610 photos uploaded!

WunderBlogs® & News

Nearby

Air Quality

  Air Quality AQ Index Pollutant
Not available.

Snow Depth

Station Depth Elevation

Earthquake Activity

City Distance Mag. Time & Date
Minimum magnitude displayed is 2.5.

Coastal Water Temperatures

Place Temperature

Nearby Weather Stations